Time;durP1;ratioP1;P1;durP2;ratioP2;P2;SDS_P1;SDS_P2;PMS_P1;PMS_P2;Temp;Humidity;BMP_temperature;BMP_pressure;BME280_temperature;BME280_humidity;BME280_pressure;Samples;Min_cycle;Max_cycle;Signal;HPM_P1;HPM_P2
2022/10/01 00:01:14;;;;;;;2.40;2.20;;;18.60;61.50;19.80;99892.00;;;;4971526;28;20184;-47
2022/10/01 00:03:41;;;;;;;2.27;2.03;;;18.60;61.40;19.80;99889.00;;;;4970844;28;20265;-46
2022/10/01 00:06:12;;;;;;;3.00;2.30;;;18.60;61.30;19.80;99866.00;;;;4971233;28;20185;-46
2022/10/01 00:08:39;;;;;;;2.70;2.50;;;18.50;61.40;19.70;99881.00;;;;4971348;28;20166;-46
2022/10/01 00:11:13;;;;;;;2.47;2.07;;;18.50;61.40;19.70;99875.00;;;;4969851;28;20196;-44
2022/10/01 00:13:41;;;;;;;3.33;2.47;;;18.50;61.30;19.70;99870.00;;;;4987051;28;20175;-44
2022/10/01 00:16:08;;;;;;;2.20;2.00;;;18.60;60.70;19.70;99865.00;;;;4991244;28;20215;-44
2022/10/01 00:18:36;;;;;;;3.30;2.20;;;18.50;61.10;19.70;99872.00;;;;4989321;28;20176;-44
2022/10/01 00:21:06;;;;;;;2.20;2.00;;;18.50;61.10;19.70;99868.00;;;;4989398;28;20176;-46
2022/10/01 00:23:32;;;;;;;2.27;2.07;;;18.50;61.10;19.70;99879.00;;;;4990218;28;20207;-45
2022/10/01 00:26:08;;;;;;;2.40;2.20;;;18.50;61.00;19.60;99876.00;;;;4990331;28;20188;-44
2022/10/01 00:28:33;;;;;;;3.63;2.20;;;18.50;61.00;19.60;99879.00;;;;4990510;28;20218;-47
2022/10/01 00:30:59;;;;;;;2.73;2.00;;;18.50;60.90;19.60;99882.00;;;;4990441;28;20176;-45
2022/10/01 00:33:25;;;;;;;2.93;2.10;;;18.50;60.90;19.60;99878.00;;;;4989871;28;20258;-44
2022/10/01 00:35:53;;;;;;;2.87;2.20;;;18.50;61.00;19.60;99872.00;;;;4990225;28;20635;-47
2022/10/01 00:38:19;;;;;;;2.40;2.20;;;18.40;60.90;19.60;99879.00;;;;4990264;28;20172;-47
2022/10/01 00:40:45;;;;;;;2.27;2.07;;;18.50;61.00;19.60;99870.00;;;;4990226;28;20184;-45
2022/10/01 00:43:25;;;;;;;2.30;2.10;;;18.40;60.90;19.60;99868.00;;;;4988865;28;20291;-46
2022/10/01 00:45:53;;;;;;;2.47;2.27;;;18.40;60.90;19.50;99853.00;;;;4989698;28;20669;-45
2022/10/01 00:48:19;;;;;;;3.27;2.33;;;18.40;61.00;19.60;99831.00;;;;4988764;28;20252;-46
2022/10/01 00:50:47;;;;;;;2.83;2.00;;;18.40;61.00;19.50;99857.00;;;;4988230;28;20187;-45
2022/10/01 00:53:13;;;;;;;3.23;2.00;;;18.40;60.90;19.50;99853.00;;;;4989897;28;20188;-46
2022/10/01 00:55:42;;;;;;;2.20;2.00;;;18.30;60.90;19.50;99846.00;;;;4988269;28;20262;-45
2022/10/01 00:58:09;;;;;;;2.67;2.30;;;18.30;61.00;19.50;99844.00;;;;4988262;28;20236;-46
2022/10/01 01:00:35;;;;;;;2.23;2.10;;;18.30;61.00;19.50;99825.00;;;;4988286;28;20184;-45
2022/10/01 01:03:01;;;;;;;2.33;2.13;;;18.40;61.20;19.50;99830.00;;;;4988006;28;20227;-46
2022/10/01 01:05:26;;;;;;;3.00;2.20;;;18.30;61.10;19.50;99834.00;;;;4989068;28;20644;-45
2022/10/01 01:07:52;;;;;;;2.80;2.13;;;18.30;61.10;19.50;99820.00;;;;4989365;28;20192;-46
2022/10/01 01:11:02;;;;;;;2.50;2.30;;;18.30;61.20;19.50;99793.00;;;;4989392;28;20196;-46
2022/10/01 01:13:34;;;;;;;2.47;2.27;;;18.30;61.20;19.40;99793.00;;;;4987627;28;20176;-46
2022/10/01 01:16:24;;;;;;;2.90;2.30;;;18.30;61.30;19.40;99782.00;;;;4988152;28;20681;-45
2022/10/01 01:19:06;;;;;;;2.30;2.10;;;18.30;61.20;19.40;99787.00;;;;4989296;28;20172;-45
2022/10/01 01:21:43;;;;;;;3.60;2.23;;;18.30;61.20;19.40;99776.00;;;;4987932;28;20231;-46
2022/10/01 01:24:47;;;;;;;2.30;2.10;;;18.30;61.20;19.40;99777.00;;;;4987811;28;20228;-45
2022/10/01 01:27:41;;;;;;;2.30;2.03;;;18.30;61.20;19.30;99759.00;;;;4989557;28;20179;-46
2022/10/01 01:30:13;;;;;;;2.10;2.00;;;18.30;61.20;19.30;99758.00;;;;4972141;28;20168;-45
2022/10/01 01:32:50;;;;;;;1.90;1.80;;;18.30;61.10;19.30;99761.00;;;;4988289;28;20179;-46
2022/10/01 01:35:32;;;;;;;2.37;2.10;;;18.30;61.30;19.30;99749.00;;;;4987804;28;20183;-45
2022/10/01 01:38:08;;;;;;;2.37;2.10;;;18.30;61.30;19.30;99746.00;;;;4987684;28;20222;-45
2022/10/01 01:40:35;;;;;;;2.00;1.90;;;18.30;61.30;19.30;99748.00;;;;4987882;28;20222;-44
2022/10/01 01:43:04;;;;;;;2.10;2.00;;;18.20;61.30;19.30;99759.00;;;;4987835;28;20570;-46
2022/10/01 01:45:30;;;;;;;3.03;1.93;;;18.20;61.30;19.30;99732.00;;;;4987429;28;20280;-45
2022/10/01 01:47:56;;;;;;;2.10;2.00;;;18.20;61.30;19.30;99733.00;;;;4987641;28;20179;-47
2022/10/01 01:50:24;;;;;;;2.13;2.00;;;18.20;61.30;19.30;99691.00;;;;4987597;28;20255;-44
2022/10/01 01:52:52;;;;;;;2.90;2.00;;;18.20;61.30;19.30;99701.00;;;;4987698;28;20214;-44
2022/10/01 01:55:18;;;;;;;2.63;2.00;;;18.20;61.50;19.30;99701.00;;;;4988432;28;20223;-44
2022/10/01 01:57:43;;;;;;;2.47;2.07;;;18.20;61.30;19.30;99689.00;;;;4987320;28;20621;-45
2022/10/01 02:00:11;;;;;;;2.20;2.00;;;18.20;61.20;19.20;99667.00;;;;4971517;28;20270;-46
2022/10/01 02:02:38;;;;;;;2.20;2.00;;;18.20;61.20;19.20;99654.00;;;;4988597;28;20183;-45
2022/10/01 02:05:12;;;;;;;2.37;2.00;;;18.20;61.30;19.20;99662.00;;;;4987562;28;20193;-47
2022/10/01 02:08:06;;;;;;;1.97;1.87;;;18.10;61.30;19.20;99645.00;;;;4987572;28;20170;-45
2022/10/01 02:10:42;;;;;;;1.83;1.73;;;18.10;61.30;19.20;99627.00;;;;4989148;28;20183;-44
2022/10/01 02:13:38;;;;;;;2.00;1.90;;;18.10;61.30;19.20;99636.00;;;;4987399;28;20243;-45
2022/10/01 02:16:40;;;;;;;1.93;1.83;;;18.10;61.40;19.20;99637.00;;;;4987435;28;20667;-45
2022/10/01 02:19:12;;;;;;;2.10;2.00;;;18.10;61.50;19.10;99621.00;;;;4988847;28;20175;-46
2022/10/01 02:21:50;;;;;;;3.13;2.10;;;18.00;61.50;19.10;99634.00;;;;4987543;28;20176;-46
2022/10/01 02:24:47;;;;;;;1.97;1.87;;;18.00;61.50;19.10;99634.00;;;;4987229;28;20584;-45
2022/10/01 02:27:39;;;;;;;2.33;1.80;;;18.00;61.60;19.10;99639.00;;;;4988966;28;20188;-44
2022/10/01 02:30:07;;;;;;;2.00;1.90;;;18.10;61.60;19.10;99632.00;;;;4982933;28;20188;-45
2022/10/01 02:32:33;;;;;;;2.50;1.90;;;18.00;61.70;19.10;99649.00;;;;4971265;28;20677;-45
2022/10/01 02:34:59;;;;;;;2.90;1.90;;;18.00;61.70;19.10;99644.00;;;;4986749;28;20195;-46
2022/10/01 02:37:25;;;;;;;2.20;1.80;;;18.00;61.90;19.10;99647.00;;;;4987146;28;20173;-47
2022/10/01 02:39:52;;;;;;;2.23;2.03;;;18.00;61.90;19.10;99654.00;;;;4987195;28;20168;-46
2022/10/01 02:42:19;;;;;;;2.00;1.90;;;18.00;61.90;19.10;99652.00;;;;4987112;28;20200;-46
2022/10/01 02:44:44;;;;;;;1.80;1.70;;;18.00;61.90;19.10;99667.00;;;;4970674;28;20212;-45
2022/10/01 02:47:17;;;;;;;1.90;1.80;;;17.90;61.80;19.10;99657.00;;;;4973975;28;20546;-46
2022/10/01 02:49:43;;;;;;;2.00;1.90;;;18.00;61.90;19.10;99676.00;;;;4968240;28;20178;-44
2022/10/01 02:52:22;;;;;;;3.03;2.13;;;17.90;62.00;19.10;99668.00;;;;4951513;28;20204;-45
2022/10/01 02:54:54;;;;;;;1.90;1.80;;;17.90;62.10;19.00;99667.00;;;;4964216;28;20200;-47
2022/10/01 02:57:23;;;;;;;2.00;1.90;;;17.90;62.40;19.00;99667.00;;;;4961783;28;20205;-45
2022/10/01 02:59:56;;;;;;;2.13;1.93;;;18.00;62.30;19.00;99666.00;;;;4948996;29;20176;-44
2022/10/01 03:02:26;;;;;;;4.43;2.17;;;17.90;62.10;19.00;99639.00;;;;4948951;29;20178;-45
2022/10/01 03:04:52;;;;;;;2.10;1.93;;;17.90;62.60;19.00;99608.00;;;;4949188;28;20196;-45
2022/10/01 03:07:17;;;;;;;2.20;2.00;;;17.90;62.40;19.00;99599.00;;;;4952337;29;20181;-45
2022/10/01 03:09:43;;;;;;;3.33;2.10;;;17.90;62.40;19.00;99597.00;;;;4952685;29;20202;-46
2022/10/01 03:12:12;;;;;;;2.10;1.90;;;17.80;62.30;18.80;99583.00;;;;4953987;28;20287;-45
2022/10/01 03:14:38;;;;;;;2.97;2.10;;;17.80;62.50;19.00;99582.00;;;;4971447;28;20196;-44
2022/10/01 03:17:06;;;;;;;3.27;2.03;;;17.80;62.50;19.00;99582.00;;;;4970548;28;20725;-45
2022/10/01 03:19:31;;;;;;;3.23;2.10;;;17.80;62.50;19.00;99572.00;;;;4971701;28;20581;-45
2022/10/01 03:21:57;;;;;;;2.10;1.90;;;17.80;62.40;19.00;99550.00;;;;4970553;28;20213;-46
2022/10/01 03:24:23;;;;;;;2.67;1.90;;;17.80;62.50;18.90;99566.00;;;;4971226;28;20283;-45
2022/10/01 03:26:49;;;;;;;2.53;1.90;;;17.80;62.50;18.90;99578.00;;;;4970894;28;20176;-45
2022/10/01 03:29:15;;;;;;;4.33;2.00;;;17.80;62.50;18.90;99596.00;;;;4972335;28;20192;-46
2022/10/01 03:31:41;;;;;;;3.47;2.07;;;17.70;62.50;18.90;99587.00;;;;4972091;28;20173;-44
2022/10/01 03:34:06;;;;;;;3.60;2.00;;;17.70;62.50;18.90;99562.00;;;;4971811;28;20177;-44
2022/10/01 03:36:32;;;;;;;2.20;2.00;;;17.70;62.60;18.90;99560.00;;;;4970921;28;20193;-44
2022/10/01 03:38:58;;;;;;;3.07;2.00;;;17.70;62.60;18.90;99561.00;;;;4971699;28;20177;-44
2022/10/01 03:41:24;;;;;;;3.07;1.97;;;17.70;62.50;18.90;99572.00;;;;4971519;28;20173;-44
2022/10/01 03:43:49;;;;;;;2.50;2.00;;;17.70;62.50;18.90;99556.00;;;;4971170;28;20733;-44
2022/10/01 03:46:15;;;;;;;2.20;2.00;;;17.70;62.50;18.90;99546.00;;;;4970760;28;20196;-44
2022/10/01 03:48:41;;;;;;;2.07;1.80;;;17.70;62.50;18.80;99532.00;;;;4971322;28;20172;-46
2022/10/01 03:51:06;;;;;;;4.50;1.87;;;17.70;62.40;18.80;99532.00;;;;4971425;28;20224;-44
2022/10/01 03:53:32;;;;;;;3.63;1.97;;;17.70;62.40;18.80;99526.00;;;;4971431;28;20650;-44
2022/10/01 03:55:58;;;;;;;2.40;1.80;;;17.70;62.50;18.80;99541.00;;;;4970720;28;20205;-44
2022/10/01 03:58:24;;;;;;;2.40;1.90;;;17.70;62.50;18.80;99528.00;;;;4971014;28;20180;-45
2022/10/01 04:00:50;;;;;;;5.33;1.83;;;17.70;62.50;18.80;99518.00;;;;4969099;28;20696;-46
2022/10/01 04:03:16;;;;;;;2.77;1.80;;;17.70;62.60;18.80;99505.00;;;;4970742;28;20631;-45
2022/10/01 04:05:43;;;;;;;4.60;1.63;;;17.70;62.30;18.80;99494.00;;;;4970595;28;20189;-46
2022/10/01 04:08:09;;;;;;;4.23;2.20;;;17.70;62.20;18.80;99480.00;;;;4969981;28;20188;-44
2022/10/01 04:10:34;;;;;;;8.37;2.10;;;17.70;62.30;18.80;99488.00;;;;4970867;28;20185;-46
2022/10/01 04:13:01;;;;;;;3.03;1.70;;;17.70;62.10;18.80;99509.00;;;;4971053;28;20184;-46
2022/10/01 04:15:27;;;;;;;3.17;2.00;;;17.70;62.10;18.80;99513.00;;;;4970985;28;20249;-46
2022/10/01 04:17:53;;;;;;;3.73;1.87;;;17.70;62.20;18.80;99509.00;;;;4969479;28;20172;-45
2022/10/01 04:20:19;;;;;;;2.47;1.60;;;17.60;62.20;18.80;99497.00;;;;4970983;28;20184;-46
2022/10/01 04:22:45;;;;;;;4.73;1.90;;;17.70;63.10;18.80;99479.00;;;;4970733;28;20297;-45
2022/10/01 04:25:11;;;;;;;3.53;1.90;;;17.70;62.30;18.80;99476.00;;;;4969795;28;20193;-45
2022/10/01 04:27:38;;;;;;;5.60;2.00;;;17.70;62.30;18.80;99424.00;;;;4970630;28;20200;-44
2022/10/01 04:30:05;;;;;;;2.63;1.70;;;17.70;62.40;18.80;99411.00;;;;4971271;28;20240;-44
2022/10/01 04:32:31;;;;;;;4.50;2.03;;;17.70;62.50;18.80;99465.00;;;;4971604;28;20231;-45
2022/10/01 04:34:57;;;;;;;3.93;2.00;;;17.70;62.60;18.80;99522.00;;;;4971031;28;20208;-46
2022/10/01 04:37:23;;;;;;;6.90;2.00;;;17.70;62.50;18.80;99519.00;;;;4969813;28;20184;-45
2022/10/01 04:39:49;;;;;;;2.43;1.90;;;17.70;62.50;18.80;99463.00;;;;4970987;28;20757;-45
2022/10/01 04:42:15;;;;;;;2.40;1.87;;;17.60;62.30;18.80;99449.00;;;;4971386;28;20175;-46
2022/10/01 04:44:41;;;;;;;3.70;2.00;;;17.60;62.40;18.80;99501.00;;;;4969700;28;20209;-45
2022/10/01 04:47:07;;;;;;;2.23;1.70;;;17.60;62.30;18.80;99496.00;;;;4970739;28;20185;-46
2022/10/01 04:49:33;;;;;;;2.10;1.80;;;17.60;62.20;18.70;99521.00;;;;4970851;28;20252;-45
2022/10/01 04:51:59;;;;;;;2.83;1.80;;;17.60;62.20;18.70;99550.00;;;;4971257;28;20213;-44
2022/10/01 04:54:25;;;;;;;2.27;1.77;;;17.60;62.30;18.70;99546.00;;;;4970340;28;20180;-44
2022/10/01 04:56:51;;;;;;;2.17;1.80;;;17.60;62.30;18.70;99536.00;;;;4970642;28;20188;-45
2022/10/01 04:59:18;;;;;;;3.23;1.90;;;17.60;62.30;18.70;99535.00;;;;4971522;28;20184;-44
2022/10/01 05:01:44;;;;;;;3.50;1.90;;;17.60;62.50;18.70;99533.00;;;;4970810;28;20184;-44
2022/10/01 05:04:10;;;;;;;3.07;1.60;;;17.60;62.50;18.70;99534.00;;;;4970524;28;20191;-44
2022/10/01 05:06:36;;;;;;;2.97;1.87;;;17.60;62.70;18.70;99542.00;;;;4970546;28;20192;-45
2022/10/01 05:09:01;;;;;;;3.30;1.70;;;17.60;62.80;18.70;99528.00;;;;4970536;28;20311;-46
2022/10/01 05:11:27;;;;;;;3.57;1.60;;;17.60;62.70;18.70;99520.00;;;;4970456;28;20650;-44
2022/10/01 05:13:53;;;;;;;2.43;1.80;;;17.50;62.60;18.70;99510.00;;;;4970068;28;20166;-45
2022/10/01 05:16:19;;;;;;;4.83;1.60;;;17.60;62.50;18.70;99496.00;;;;4970397;28;20199;-46
2022/10/01 05:18:44;;;;;;;3.00;1.60;;;17.60;62.50;18.70;99488.00;;;;4968987;28;20176;-45
2022/10/01 05:21:10;;;;;;;2.43;1.70;;;17.60;62.50;18.70;99494.00;;;;4970414;28;20552;-46
2022/10/01 05:23:36;;;;;;;1.53;1.43;;;17.50;62.40;18.70;99489.00;;;;4969989;28;20240;-45
2022/10/01 05:26:04;;;;;;;1.40;1.30;;;17.60;62.50;18.60;99497.00;;;;4970055;28;20195;-45
2022/10/01 05:28:30;;;;;;;2.20;1.60;;;17.50;62.40;18.70;99495.00;;;;4970002;28;20748;-45
2022/10/01 05:31:01;;;;;;;1.60;1.50;;;17.50;62.40;18.70;99504.00;;;;4969988;28;20172;-44
2022/10/01 05:33:28;;;;;;;2.53;1.60;;;17.50;62.40;18.60;99503.00;;;;4970300;28;20595;-44
2022/10/01 05:35:55;;;;;;;1.60;1.50;;;17.50;62.40;18.60;99500.00;;;;4970024;28;20205;-44
2022/10/01 05:38:21;;;;;;;1.47;1.37;;;17.50;62.50;18.60;99491.00;;;;4970646;28;20254;-46
2022/10/01 05:40:47;;;;;;;1.90;1.57;;;17.50;62.40;18.60;99496.00;;;;4970202;28;20185;-44
2022/10/01 05:43:13;;;;;;;3.37;1.50;;;17.50;62.40;18.60;99510.00;;;;4970418;28;20196;-44
2022/10/01 05:45:39;;;;;;;1.40;1.30;;;17.50;62.40;18.60;99506.00;;;;4969840;28;20457;-45
2022/10/01 05:48:06;;;;;;;1.47;1.37;;;17.50;62.40;18.60;99505.00;;;;4970281;28;20200;-45
2022/10/01 05:50:35;;;;;;;1.93;1.53;;;17.50;62.40;18.60;99516.00;;;;4969917;28;20177;-44
2022/10/01 05:53:01;;;;;;;1.90;1.40;;;17.50;62.40;18.60;99524.00;;;;4969872;28;20173;-45
2022/10/01 05:55:32;;;;;;;1.50;1.40;;;17.50;62.40;18.60;99519.00;;;;4969316;28;20207;-44
2022/10/01 05:58:10;;;;;;;1.50;1.40;;;17.50;62.40;18.60;99521.00;;;;4969986;28;20210;-45
2022/10/01 06:00:37;;;;;;;1.40;1.20;;;17.50;62.40;18.60;99518.00;;;;4968758;28;20188;-43
2022/10/01 06:03:03;;;;;;;1.47;1.37;;;17.50;62.40;18.60;99511.00;;;;4969731;28;20195;-45
2022/10/01 06:05:30;;;;;;;1.63;1.43;;;17.40;62.30;18.60;99515.00;;;;4969346;28;20211;-46
2022/10/01 06:07:56;;;;;;;1.43;1.33;;;17.40;62.30;18.60;99524.00;;;;4970305;28;20161;-44
2022/10/01 06:10:21;;;;;;;1.20;1.20;;;17.40;62.30;18.60;99522.00;;;;4969729;28;20798;-44
2022/10/01 06:12:47;;;;;;;1.40;1.30;;;17.40;62.30;18.50;99529.00;;;;4969820;28;20183;-45
2022/10/01 06:15:13;;;;;;;1.13;1.13;;;17.40;62.30;18.60;99514.00;;;;4968362;28;20199;-46
2022/10/01 06:17:43;;;;;;;1.60;1.40;;;17.40;62.30;18.50;99517.00;;;;4969513;28;20184;-45
2022/10/01 06:20:14;;;;;;;1.67;1.50;;;17.40;62.30;18.50;99522.00;;;;4970386;28;20160;-46
2022/10/01 06:22:41;;;;;;;1.20;1.20;;;17.30;62.30;18.50;99524.00;;;;4970325;28;20199;-44
2022/10/01 06:25:09;;;;;;;1.53;1.40;;;17.40;62.30;18.50;99531.00;;;;4969649;28;20600;-45
2022/10/01 06:27:34;;;;;;;1.30;1.20;;;17.40;62.30;18.50;99523.00;;;;4968526;28;20179;-45
2022/10/01 06:30:01;;;;;;;0.80;0.80;;;17.40;62.30;18.50;99526.00;;;;4970193;28;20169;-43
2022/10/01 06:32:26;;;;;;;1.27;1.20;;;17.40;62.30;18.50;99531.00;;;;4969425;28;20247;-44
2022/10/01 06:34:52;;;;;;;1.03;1.00;;;17.40;62.30;18.50;99529.00;;;;4969566;28;20205;-45
2022/10/01 06:37:18;;;;;;;1.33;1.27;;;17.30;62.20;18.50;99535.00;;;;4969648;28;20743;-45
2022/10/01 06:39:43;;;;;;;1.17;1.07;;;17.30;62.20;18.30;99538.00;;;;4969842;28;20177;-45
2022/10/01 06:42:09;;;;;;;1.27;1.17;;;17.30;62.30;18.50;99543.00;;;;4972690;28;20209;-45
2022/10/01 06:44:35;;;;;;;1.23;1.23;;;17.30;62.30;18.50;99537.00;;;;4973097;28;20623;-44
2022/10/01 06:47:01;;;;;;;1.40;1.30;;;17.30;62.30;18.50;99535.00;;;;4972748;28;20175;-44
2022/10/01 06:49:26;;;;;;;1.13;1.00;;;17.40;62.40;18.50;99536.00;;;;4973109;28;20227;-44
2022/10/01 06:54:36;;;;;;;1.33;1.27;;;17.30;62.40;18.40;99544.00;;;;4972996;28;20170;-43
2022/10/01 06:57:02;;;;;;;1.10;1.03;;;17.30;62.40;18.40;99543.00;;;;4972627;28;20199;-44
2022/10/01 06:59:28;;;;;;;1.17;1.07;;;17.30;62.40;18.40;99538.00;;;;4973130;28;20178;-43
2022/10/01 07:01:54;;;;;;;1.20;1.20;;;17.30;62.50;18.40;99545.00;;;;4972903;28;20691;-45
2022/10/01 07:04:20;;;;;;;1.23;1.00;;;17.30;62.50;18.40;99551.00;;;;4972736;28;20194;-45
2022/10/01 07:06:45;;;;;;;0.83;0.83;;;17.30;62.50;18.40;99543.00;;;;4972961;28;20203;-44
2022/10/01 07:09:11;;;;;;;1.27;1.17;;;17.30;62.60;18.40;99553.00;;;;4972793;28;20259;-44
2022/10/01 07:11:40;;;;;;;1.10;1.10;;;17.30;62.60;18.40;99553.00;;;;4972672;28;20173;-45
2022/10/01 07:14:09;;;;;;;1.00;1.00;;;17.30;62.60;18.40;99568.00;;;;4972561;28;20175;-47
2022/10/01 07:16:38;;;;;;;1.00;1.00;;;17.30;62.60;18.40;99557.00;;;;4972658;28;20216;-48
2022/10/01 07:19:03;;;;;;;2.40;1.30;;;17.30;62.70;18.40;99561.00;;;;4973032;28;20191;-43
2022/10/01 07:21:29;;;;;;;1.13;1.10;;;17.30;62.60;18.40;99551.00;;;;4972854;28;20252;-44
2022/10/01 07:23:55;;;;;;;1.10;1.10;;;17.30;62.60;18.40;99569.00;;;;4972334;28;20700;-44
2022/10/01 07:26:21;;;;;;;0.90;0.90;;;17.20;62.60;18.40;99579.00;;;;4972017;28;20366;-43
2022/10/01 07:28:46;;;;;;;1.23;1.13;;;17.30;62.60;18.40;99572.00;;;;4972573;28;20181;-44
2022/10/01 07:31:12;;;;;;;1.10;1.10;;;17.20;62.60;18.40;99578.00;;;;4972001;28;20166;-44
2022/10/01 07:33:38;;;;;;;1.20;1.10;;;17.20;62.60;18.40;99578.00;;;;4972309;28;20201;-43
2022/10/01 07:36:06;;;;;;;1.10;1.00;;;17.20;62.60;18.40;99579.00;;;;4972173;28;20238;-44
2022/10/01 07:38:35;;;;;;;1.30;1.10;;;17.20;62.80;18.40;99584.00;;;;4972171;28;20171;-46
2022/10/01 07:41:03;;;;;;;1.40;1.30;;;17.20;62.70;18.40;99578.00;;;;4972133;28;20166;-44
2022/10/01 07:43:30;;;;;;;1.90;1.30;;;17.20;62.70;18.40;99585.00;;;;4972187;28;20192;-43
2022/10/01 07:45:56;;;;;;;1.20;1.10;;;17.20;62.90;18.30;99569.00;;;;4971849;28;20196;-43
2022/10/01 07:48:23;;;;;;;1.50;1.40;;;17.20;62.80;18.30;99584.00;;;;4972594;28;20183;-44
2022/10/01 07:50:49;;;;;;;1.10;1.00;;;17.20;63.00;18.30;99575.00;;;;4972290;28;20641;-46
2022/10/01 07:53:15;;;;;;;1.37;1.10;;;17.20;63.10;18.30;99579.00;;;;4971730;28;20264;-45
2022/10/01 07:55:41;;;;;;;1.70;1.40;;;17.20;63.20;18.30;99572.00;;;;4971202;28;20199;-43
2022/10/01 07:58:07;;;;;;;3.47;1.47;;;17.20;63.30;18.30;99578.00;;;;4972052;28;20223;-44
2022/10/01 08:00:33;;;;;;;4.13;1.37;;;17.20;63.30;18.30;99576.00;;;;4971849;28;20790;-44
2022/10/01 08:02:58;;;;;;;1.60;1.30;;;17.20;63.30;18.30;99579.00;;;;4971662;28;20597;-46
2022/10/01 08:05:33;;;;;;;1.57;1.30;;;17.20;63.30;18.30;99588.00;;;;4970240;28;20288;-45
2022/10/01 08:08:06;;;;;;;1.67;1.30;;;17.20;63.30;18.30;99598.00;;;;4971704;28;20227;-44
2022/10/01 08:10:34;;;;;;;1.80;1.30;;;17.20;63.30;18.30;99594.00;;;;4952790;29;20158;-44
2022/10/01 08:13:02;;;;;;;3.20;1.10;;;17.20;63.70;18.30;99600.00;;;;4952466;29;20572;-46
2022/10/01 08:15:28;;;;;;;1.30;1.20;;;17.20;63.80;18.30;99601.00;;;;4951006;28;20254;-43
2022/10/01 08:17:54;;;;;;;1.07;1.07;;;17.20;63.70;18.30;99602.00;;;;4951145;29;20621;-45
2022/10/01 08:20:20;;;;;;;1.50;1.40;;;17.20;63.70;18.30;99600.00;;;;4952452;29;20260;-44
2022/10/01 08:22:46;;;;;;;1.83;1.20;;;17.20;63.70;18.30;99590.00;;;;4952289;28;20183;-44
2022/10/01 08:25:11;;;;;;;2.27;1.40;;;17.20;63.80;18.30;99602.00;;;;4951925;29;20188;-43
2022/10/01 08:27:37;;;;;;;1.63;1.50;;;17.20;63.90;18.30;99615.00;;;;4952004;29;20177;-42
2022/10/01 08:30:04;;;;;;;1.43;1.20;;;17.20;64.00;18.30;99612.00;;;;4952832;29;20183;-44
2022/10/01 08:32:30;;;;;;;1.93;1.30;;;17.20;64.10;18.30;99626.00;;;;4952161;28;20181;-45
2022/10/01 08:34:56;;;;;;;1.83;1.13;;;17.20;64.20;18.30;99628.00;;;;4951955;29;20193;-47
2022/10/01 08:37:26;;;;;;;1.40;1.30;;;17.30;64.30;18.30;99622.00;;;;4951532;29;20192;-44
2022/10/01 08:39:53;;;;;;;1.77;1.30;;;17.30;64.50;18.30;99630.00;;;;4951980;28;20392;-45
2022/10/01 08:42:51;;;;;;;2.07;1.20;;;17.30;64.50;18.30;99622.00;;;;4950981;28;20182;-45
2022/10/01 08:45:49;;;;;;;3.37;1.37;;;17.30;64.40;18.30;99632.00;;;;4950748;29;20204;-46
2022/10/01 08:48:44;;;;;;;2.63;1.83;;;17.30;64.60;18.30;99627.00;;;;4958984;28;20192;-45
2022/10/01 08:51:20;;;;;;;3.57;1.50;;;17.30;64.60;18.20;99626.00;;;;4970292;28;20190;-45
2022/10/01 08:53:50;;;;;;;13.03;1.67;;;17.30;64.70;18.20;99627.00;;;;4971351;28;20568;-44
2022/10/01 08:56:45;;;;;;;7.17;2.00;;;17.30;64.60;18.00;99643.00;;;;4965698;28;20237;-44
2022/10/01 08:59:31;;;;;;;3.23;1.50;;;17.30;64.10;18.20;99647.00;;;;4938864;28;20353;-45
2022/10/01 09:01:58;;;;;;;2.80;1.27;;;17.30;64.40;18.20;99642.00;;;;4969271;28;20175;-43
2022/10/01 09:04:25;;;;;;;5.97;1.37;;;17.30;64.50;18.20;99639.00;;;;4968533;28;20224;-46
2022/10/01 09:06:58;;;;;;;4.73;1.40;;;17.40;64.70;18.30;99636.00;;;;4969807;28;20158;-43
2022/10/01 09:09:56;;;;;;;4.87;1.50;;;17.30;64.80;18.20;99647.00;;;;4970265;28;20160;-45
2022/10/01 09:12:35;;;;;;;2.10;1.50;;;17.30;65.00;18.20;99651.00;;;;4972596;28;20226;-44
2022/10/01 09:15:26;;;;;;;3.23;1.70;;;17.30;64.90;18.30;99647.00;;;;4976223;28;20682;-44
2022/10/01 09:18:00;;;;;;;5.23;1.40;;;17.40;65.00;18.30;99657.00;;;;4968451;28;20249;-43
2022/10/01 09:20:44;;;;;;;1.77;1.10;;;17.40;65.30;18.30;99650.00;;;;4969179;28;20165;-45
2022/10/01 09:23:28;;;;;;;4.73;1.50;;;17.40;65.20;18.30;99665.00;;;;4968331;28;20194;-45
2022/10/01 09:25:57;;;;;;;3.57;1.80;;;17.40;65.20;18.30;99661.00;;;;4969101;28;20227;-44
2022/10/01 09:28:29;;;;;;;3.13;1.50;;;17.40;65.20;18.30;99667.00;;;;4970352;28;20174;-45
2022/10/01 09:31:24;;;;;;;3.40;1.67;;;17.40;65.20;18.30;99647.00;;;;4968395;28;20176;-45
2022/10/01 09:34:15;;;;;;;3.90;1.70;;;17.30;65.10;18.30;99671.00;;;;4967978;28;20175;-45
2022/10/01 09:37:22;;;;;;;2.47;1.40;;;17.30;65.10;18.30;99671.00;;;;4968919;28;20201;-43
2022/10/01 09:40:04;;;;;;;3.17;1.60;;;17.30;65.20;18.30;99669.00;;;;4972283;28;20183;-44
2022/10/01 09:42:30;;;;;;;4.90;1.60;;;17.40;65.40;18.30;99682.00;;;;4967379;28;20166;-43
2022/10/01 09:44:56;;;;;;;4.17;1.80;;;17.30;65.40;18.30;99675.00;;;;4969112;28;20222;-47
2022/10/01 09:47:24;;;;;;;5.53;1.43;;;17.30;65.90;18.30;99678.00;;;;4975711;28;20261;-44
2022/10/01 09:49:50;;;;;;;3.17;1.60;;;17.40;65.50;18.30;99680.00;;;;4949603;29;20176;-45
2022/10/01 09:52:25;;;;;;;5.43;1.50;;;17.40;65.40;18.30;99658.00;;;;4965388;28;20190;-46
2022/10/01 09:54:57;;;;;;;3.93;1.47;;;17.40;65.30;18.30;99687.00;;;;4968405;28;20257;-45
2022/10/01 09:57:31;;;;;;;1.50;1.40;;;17.30;65.30;18.30;99688.00;;;;4924365;28;20182;-46
2022/10/01 10:00:09;;;;;;;2.27;1.50;;;17.40;65.30;18.30;99679.00;;;;4953110;28;20166;-44
2022/10/01 10:02:41;;;;;;;1.67;1.57;;;17.30;65.30;18.30;99690.00;;;;4969628;28;20676;-46
2022/10/01 10:05:28;;;;;;;4.80;1.63;;;17.30;65.20;18.40;99688.00;;;;4967593;28;20239;-44
2022/10/01 10:08:02;;;;;;;3.30;1.50;;;17.30;65.20;18.30;99709.00;;;;4968431;28;20358;-44
2022/10/01 10:10:34;;;;;;;3.53;1.60;;;17.30;65.10;18.30;99694.00;;;;4968259;28;20179;-45
2022/10/01 10:13:37;;;;;;;3.57;1.50;;;17.40;65.30;18.30;99709.00;;;;4968280;28;20167;-45
2022/10/01 10:16:26;;;;;;;4.50;1.60;;;17.30;65.20;18.30;99695.00;;;;4971555;28;20197;-44
2022/10/01 10:19:04;;;;;;;8.23;1.70;;;17.40;65.30;18.30;99699.00;;;;4972030;28;20531;-45
2022/10/01 10:21:33;;;;;;;2.50;1.60;;;17.40;65.20;18.30;99701.00;;;;4972033;28;20216;-45
2022/10/01 10:24:21;;;;;;;3.93;1.63;;;17.40;65.20;18.30;99704.00;;;;4972815;28;20795;-45
2022/10/01 10:26:56;;;;;;;2.47;1.50;;;17.40;65.10;18.40;99714.00;;;;4971929;28;20190;-46
2022/10/01 10:29:33;;;;;;;3.30;1.80;;;17.40;65.10;18.30;99715.00;;;;4973085;28;20191;-44
2022/10/01 10:32:02;;;;;;;2.17;1.43;;;17.40;65.10;18.30;99717.00;;;;4973172;28;20182;-46
2022/10/01 10:34:38;;;;;;;2.50;1.50;;;17.40;65.30;18.40;99701.00;;;;4971847;28;20555;-45
2022/10/01 10:37:10;;;;;;;2.80;1.20;;;17.40;65.00;18.40;99722.00;;;;4971837;28;20180;-46
2022/10/01 10:39:38;;;;;;;3.20;1.50;;;17.40;65.20;18.40;99717.00;;;;4956614;28;20203;-45
2022/10/01 10:42:04;;;;;;;3.87;1.37;;;17.40;65.00;18.40;99724.00;;;;4971698;28;20190;-45
2022/10/01 10:44:35;;;;;;;6.33;1.60;;;17.50;65.20;18.40;99738.00;;;;4955604;28;20231;-46
2022/10/01 10:47:04;;;;;;;1.30;1.20;;;17.40;65.20;18.40;99728.00;;;;4957793;28;20214;-44
2022/10/01 10:49:42;;;;;;;3.00;1.50;;;17.40;65.00;18.40;99725.00;;;;4973447;28;20219;-45
2022/10/01 10:52:28;;;;;;;1.90;1.37;;;17.40;65.20;18.40;99735.00;;;;4967275;28;20639;-43
2022/10/01 10:54:55;;;;;;;2.17;1.10;;;17.40;65.20;18.40;99735.00;;;;4967929;28;20554;-46
2022/10/01 10:57:29;;;;;;;1.83;1.37;;;17.40;65.20;18.40;99750.00;;;;4928303;28;20599;-45
2022/10/01 11:00:06;;;;;;;1.90;1.13;;;17.40;65.20;18.40;99743.00;;;;4973541;28;20172;-45
2022/10/01 11:02:32;;;;;;;3.47;1.40;;;17.40;65.40;18.40;99747.00;;;;4971834;28;20192;-44
2022/10/01 11:05:20;;;;;;;1.40;1.30;;;17.40;65.20;18.40;99727.00;;;;4972704;28;20287;-44
2022/10/01 11:07:46;;;;;;;0.90;0.90;;;17.40;65.20;18.40;99745.00;;;;4961795;28;20608;-44
2022/10/01 11:10:26;;;;;;;1.37;1.23;;;17.40;65.20;18.40;99750.00;;;;4971495;28;20160;-45
2022/10/01 11:13:33;;;;;;;1.03;1.00;;;17.50;65.40;18.40;99754.00;;;;4971280;28;20170;-45